Time;durP1;ratioP1;P1;durP2;ratioP2;P2;SDS_P1;SDS_P2;PMS_P1;PMS_P2;Temp;Humidity;BMP_temperature;BMP_pressure;BME280_temperature;BME280_humidity;BME280_pressure;Samples;Min_cycle;Max_cycle;Signal;HPM_P1;HPM_P2
2021/12/28 00:00:47;;;;;;;24.23;14.52;;;1.70;97.90;;;;;;5092946;28;20521;-67
2021/12/28 00:03:13;;;;;;;21.60;13.57;;;1.70;98.00;;;;;;5094341;28;20020;-68
2021/12/28 00:05:39;;;;;;;22.77;14.82;;;1.70;98.30;;;;;;5093803;28;20028;-67
2021/12/28 00:08:04;;;;;;;22.85;13.80;;;1.70;98.60;;;;;;5094358;28;20072;-67
2021/12/28 00:10:30;;;;;;;21.48;13.98;;;1.70;98.50;;;;;;5093589;28;20096;-67
2021/12/28 00:12:56;;;;;;;22.58;14.73;;;1.70;98.20;;;;;;5094566;28;20445;-67
2021/12/28 00:18:01;;;;;;;23.40;14.50;;;1.70;98.50;;;;;;5093541;28;20034;-67
2021/12/28 00:20:31;;;;;;;22.27;13.98;;;1.70;98.70;;;;;;5093487;28;20020;-68
2021/12/28 00:22:57;;;;;;;22.38;14.20;;;1.70;99.00;;;;;;5094009;28;20077;-67
2021/12/28 00:25:23;;;;;;;21.85;14.75;;;1.70;98.90;;;;;;5093657;28;20036;-68
2021/12/28 00:27:50;;;;;;;20.35;13.93;;;1.70;99.00;;;;;;5093262;28;20103;-67
2021/12/28 00:30:16;;;;;;;23.15;13.68;;;1.70;99.00;;;;;;5093324;28;20077;-66
2021/12/28 00:32:42;;;;;;;21.00;14.73;;;1.70;99.30;;;;;;5092876;28;20020;-66
2021/12/28 00:35:08;;;;;;;24.10;14.52;;;1.70;99.40;;;;;;5093705;28;20432;-68
2021/12/28 00:37:35;;;;;;;24.13;14.57;;;1.70;99.40;;;;;;5074954;28;20441;-66
2021/12/28 00:40:01;;;;;;;23.05;15.05;;;1.70;99.60;;;;;;5093802;28;20062;-67
2021/12/28 00:42:27;;;;;;;24.38;14.75;;;1.70;99.40;;;;;;5093528;28;20028;-67
2021/12/28 00:44:53;;;;;;;24.65;14.65;;;1.70;99.50;;;;;;5093470;28;20080;-66
2021/12/28 00:47:18;;;;;;;21.35;14.32;;;1.70;99.60;;;;;;5093445;28;20016;-66
2021/12/28 00:49:44;;;;;;;22.52;15.02;;;1.70;99.60;;;;;;5092980;28;20028;-66
2021/12/28 00:52:10;;;;;;;23.10;15.55;;;1.70;99.90;;;;;;5093860;28;20027;-66
2021/12/28 00:54:36;;;;;;;25.27;15.60;;;1.70;99.90;;;;;;5092641;28;20062;-68
2021/12/28 00:57:01;;;;;;;26.00;15.45;;;1.70;99.90;;;;;;5093285;28;20377;-66
2021/12/28 00:59:28;;;;;;;26.38;15.35;;;1.70;99.90;;;;;;5093375;28;20021;-67
2021/12/28 01:01:54;;;;;;;23.90;14.68;;;1.70;99.90;;;;;;5074739;28;20028;-67
2021/12/28 01:04:20;;;;;;;25.13;14.77;;;1.70;99.90;;;;;;5092987;28;20094;-67
2021/12/28 01:06:46;;;;;;;22.40;14.65;;;1.70;99.90;;;;;;5092185;28;20051;-67
2021/12/28 01:09:12;;;;;;;24.95;14.48;;;1.70;99.90;;;;;;5093233;28;20035;-68
2021/12/28 01:11:38;;;;;;;22.27;14.55;;;1.70;99.90;;;;;;5091533;28;20032;-67
2021/12/28 01:14:03;;;;;;;21.67;14.20;;;1.60;99.90;;;;;;5092859;28;20032;-67
2021/12/28 01:16:29;;;;;;;24.08;14.68;;;1.60;99.90;;;;;;5092673;28;20038;-68
2021/12/28 01:18:55;;;;;;;23.45;14.75;;;1.60;99.90;;;;;;5093008;28;20452;-68
2021/12/28 01:21:21;;;;;;;22.90;14.32;;;1.60;99.90;;;;;;5092863;28;20089;-68
2021/12/28 01:23:47;;;;;;;23.73;14.10;;;1.60;99.90;;;;;;5091987;28;20106;-68
2021/12/28 01:26:13;;;;;;;20.38;13.95;;;1.60;99.90;;;;;;5092935;28;20098;-66
2021/12/28 01:28:38;;;;;;;19.90;14.05;;;1.60;99.90;;;;;;5091881;28;20131;-67
2021/12/28 01:31:05;;;;;;;24.13;14.10;;;1.60;99.90;;;;;;5092882;28;20028;-67
2021/12/28 01:33:31;;;;;;;22.05;14.05;;;1.60;99.90;;;;;;5092526;28;20078;-67
2021/12/28 01:35:58;;;;;;;22.98;13.65;;;1.60;99.90;;;;;;5092619;28;20425;-67
2021/12/28 01:38:24;;;;;;;22.15;13.95;;;1.60;99.90;;;;;;5092544;28;20032;-67
2021/12/28 01:40:50;;;;;;;23.25;14.13;;;1.60;99.90;;;;;;5091956;28;20476;-67
2021/12/28 01:43:19;;;;;;;21.00;13.50;;;1.60;99.90;;;;;;5092468;28;20028;-67
2021/12/28 01:46:00;;;;;;;22.52;13.55;;;1.50;99.90;;;;;;5091521;28;20426;-67
2021/12/28 01:48:38;;;;;;;18.75;12.45;;;1.60;99.90;;;;;;5074368;28;20036;-68
2021/12/28 01:51:13;;;;;;;23.65;13.73;;;1.50;99.90;;;;;;5092443;28;20028;-68
2021/12/28 01:53:40;;;;;;;22.50;13.50;;;1.50;99.90;;;;;;5091508;28;20187;-68
2021/12/28 01:56:10;;;;;;;21.58;13.05;;;1.50;99.90;;;;;;5092353;28;20040;-67
2021/12/28 01:58:37;;;;;;;21.98;13.05;;;1.60;99.90;;;;;;5091655;28;20035;-67
2021/12/28 02:01:04;;;;;;;21.73;14.15;;;1.50;99.90;;;;;;5092463;28;20016;-66
2021/12/28 02:03:30;;;;;;;22.52;14.00;;;1.50;99.90;;;;;;5092283;28;20102;-68
2021/12/28 02:05:56;;;;;;;20.85;12.82;;;1.50;99.90;;;;;;5073380;28;20035;-67
2021/12/28 02:08:22;;;;;;;21.83;13.85;;;1.50;99.90;;;;;;5092005;28;20070;-67
2021/12/28 02:10:52;;;;;;;25.20;13.85;;;1.60;99.90;;;;;;5091477;28;20024;-67
2021/12/28 02:13:18;;;;;;;21.38;13.38;;;1.50;99.90;;;;;;5074270;28;20040;-67
2021/12/28 02:15:45;;;;;;;24.42;13.52;;;1.50;99.90;;;;;;5091354;28;20036;-66
2021/12/28 02:18:13;;;;;;;21.13;13.25;;;1.50;99.90;;;;;;5091947;28;20480;-66
2021/12/28 02:20:40;;;;;;;20.05;12.73;;;1.60;99.90;;;;;;5091472;28;20112;-67
2021/12/28 02:23:06;;;;;;;22.38;13.35;;;1.50;99.90;;;;;;5092750;28;20028;-67
2021/12/28 02:25:32;;;;;;;19.45;12.95;;;1.60;99.90;;;;;;5096548;28;20024;-66
2021/12/28 02:28:00;;;;;;;23.67;13.93;;;1.50;99.90;;;;;;5095497;28;20418;-67
2021/12/28 02:30:26;;;;;;;20.33;12.98;;;1.50;99.90;;;;;;5095883;28;20499;-67
2021/12/28 02:32:52;;;;;;;25.13;13.57;;;1.50;99.90;;;;;;5095080;28;20127;-67
2021/12/28 02:35:21;;;;;;;18.55;12.73;;;1.50;99.90;;;;;;5095937;28;20047;-67
2021/12/28 02:37:47;;;;;;;20.10;13.05;;;1.50;99.90;;;;;;5095145;28;20073;-67
2021/12/28 02:40:15;;;;;;;23.17;13.65;;;1.60;99.90;;;;;;5096006;28;20425;-67
2021/12/28 02:42:42;;;;;;;22.13;12.65;;;1.60;99.90;;;;;;5095371;28;20374;-67
2021/12/28 02:45:12;;;;;;;20.15;13.65;;;1.60;99.90;;;;;;5095824;28;20036;-67
2021/12/28 02:47:40;;;;;;;19.92;13.40;;;1.50;99.90;;;;;;5095368;28;20035;-67
2021/12/28 02:50:12;;;;;;;20.33;12.93;;;1.50;99.90;;;;;;5095627;28;20039;-67
2021/12/28 02:52:38;;;;;;;23.73;13.35;;;1.50;99.90;;;;;;5095239;28;20031;-66
2021/12/28 02:55:07;;;;;;;18.30;12.43;;;1.50;99.90;;;;;;5095153;28;20079;-67
2021/12/28 02:57:34;;;;;;;20.85;13.48;;;1.50;99.90;;;;;;5095417;28;20065;-66
2021/12/28 02:59:59;;;;;;;24.60;14.45;;;1.50;99.90;;;;;;5076722;28;20024;-67
2021/12/28 03:02:25;;;;;;;20.88;12.48;;;1.50;99.90;;;;;;5095673;28;20032;-66
2021/12/28 03:04:51;;;;;;;19.95;12.43;;;1.50;99.90;;;;;;5094946;28;20525;-67
2021/12/28 03:07:16;;;;;;;21.05;14.13;;;1.50;99.90;;;;;;5095479;28;20344;-66
2021/12/28 03:09:42;;;;;;;23.70;13.82;;;1.50;99.90;;;;;;5094863;28;20082;-66
2021/12/28 03:12:09;;;;;;;20.10;13.27;;;1.40;99.90;;;;;;5095182;28;20095;-67
2021/12/28 03:14:36;;;;;;;21.15;13.15;;;1.40;99.90;;;;;;5095257;28;20062;-67
2021/12/28 03:17:03;;;;;;;21.38;13.95;;;1.40;99.90;;;;;;5094602;28;20069;-67
2021/12/28 03:19:29;;;;;;;20.90;13.02;;;1.40;99.90;;;;;;5095253;28;20028;-66
2021/12/28 03:22:00;;;;;;;21.38;13.15;;;1.40;99.90;;;;;;5094269;28;20031;-66
2021/12/28 03:27:29;;;;;;;20.05;13.23;;;1.40;99.90;;;;;;5094714;28;20445;-68
2021/12/28 03:29:55;;;;;;;19.40;13.45;;;1.40;99.90;;;;;;5094107;28;20051;-68
2021/12/28 03:32:20;;;;;;;20.27;13.45;;;1.40;99.90;;;;;;5094886;28;20024;-67
2021/12/28 03:35:05;;;;;;;21.30;13.43;;;1.40;99.90;;;;;;5092959;28;20100;-67
2021/12/28 03:37:32;;;;;;;20.02;13.40;;;1.40;99.90;;;;;;5076836;28;20051;-67
2021/12/28 03:39:59;;;;;;;19.67;12.65;;;1.30;99.90;;;;;;5094135;28;20366;-67
2021/12/28 03:42:25;;;;;;;23.60;14.27;;;1.30;99.90;;;;;;5094388;28;20028;-67
2021/12/28 03:44:51;;;;;;;18.98;13.10;;;1.30;99.90;;;;;;5093797;28;20024;-68
2021/12/28 03:47:17;;;;;;;22.85;13.70;;;1.30;99.90;;;;;;5094694;28;20024;-66
2021/12/28 03:49:42;;;;;;;18.85;13.35;;;1.30;99.90;;;;;;5094167;28;20102;-67
2021/12/28 03:52:08;;;;;;;22.88;13.32;;;1.30;99.90;;;;;;5094679;28;20175;-66
2021/12/28 03:54:34;;;;;;;19.30;13.52;;;1.30;99.90;;;;;;5076172;28;20382;-67
2021/12/28 03:57:02;;;;;;;20.70;12.77;;;1.30;99.90;;;;;;5093490;28;20106;-67
2021/12/28 03:59:28;;;;;;;20.60;12.77;;;1.30;99.90;;;;;;5094505;28;20024;-67
2021/12/28 04:01:53;;;;;;;21.63;13.02;;;1.30;99.90;;;;;;5093731;28;20031;-67
2021/12/28 04:04:19;;;;;;;18.55;12.80;;;1.30;99.90;;;;;;5094311;28;20032;-67
2021/12/28 04:06:45;;;;;;;23.10;13.48;;;1.30;99.90;;;;;;5093439;28;20388;-66
2021/12/28 04:09:12;;;;;;;20.02;12.73;;;1.30;99.90;;;;;;5094199;28;20084;-67
2021/12/28 04:11:38;;;;;;;23.42;13.38;;;1.30;99.90;;;;;;5093930;28;20478;-67
2021/12/28 04:14:07;;;;;;;18.02;12.48;;;1.30;99.90;;;;;;5093631;28;20102;-68
2021/12/28 04:16:34;;;;;;;18.45;12.18;;;1.30;99.90;;;;;;5093868;28;20118;-67
2021/12/28 04:19:04;;;;;;;19.35;12.18;;;1.30;99.90;;;;;;5093091;28;20453;-67
2021/12/28 04:21:30;;;;;;;17.58;13.23;;;1.30;99.90;;;;;;5090293;28;20106;-67
2021/12/28 04:23:55;;;;;;;20.52;12.98;;;1.30;99.90;;;;;;5090056;28;20035;-65
2021/12/28 04:26:22;;;;;;;19.27;11.88;;;1.20;99.90;;;;;;5070401;28;20032;-67
2021/12/28 04:28:48;;;;;;;19.50;12.10;;;1.30;99.90;;;;;;5091982;28;20046;-67
2021/12/28 04:31:14;;;;;;;20.92;13.20;;;1.20;99.90;;;;;;5092852;28;20457;-67
2021/12/28 04:33:40;;;;;;;18.08;12.93;;;1.30;99.90;;;;;;5093418;28;20098;-68
2021/12/28 04:36:12;;;;;;;19.50;13.27;;;1.30;99.90;;;;;;5092725;28;20491;-67
2021/12/28 04:38:39;;;;;;;19.55;13.15;;;1.30;99.90;;;;;;5090588;28;20410;-68
2021/12/28 04:41:05;;;;;;;19.15;13.25;;;1.20;99.90;;;;;;5092444;28;20023;-68
2021/12/28 04:43:32;;;;;;;20.95;13.57;;;1.20;99.90;;;;;;5093030;28;20059;-67
2021/12/28 04:45:58;;;;;;;19.70;13.57;;;1.20;99.90;;;;;;5074140;28;20036;-66
2021/12/28 04:48:24;;;;;;;20.05;14.23;;;1.20;99.90;;;;;;5092236;28;20080;-67
2021/12/28 04:50:49;;;;;;;22.30;13.55;;;1.20;99.90;;;;;;5092277;28;20384;-67
2021/12/28 04:53:16;;;;;;;18.77;13.15;;;1.20;99.90;;;;;;5093004;28;20024;-66
2021/12/28 04:55:44;;;;;;;22.15;13.93;;;1.20;99.90;;;;;;5093161;28;20127;-67
2021/12/28 04:58:11;;;;;;;20.88;13.10;;;1.20;99.90;;;;;;5092944;28;20107;-67
2021/12/28 05:00:37;;;;;;;21.52;14.40;;;1.20;99.90;;;;;;5092895;28;20515;-66
2021/12/28 05:03:04;;;;;;;20.73;14.38;;;1.20;99.90;;;;;;5092909;28;20102;-66
2021/12/28 05:05:31;;;;;;;21.85;14.88;;;1.20;99.90;;;;;;5093162;28;20058;-66
2021/12/28 05:07:57;;;;;;;21.90;14.23;;;1.20;99.90;;;;;;5092557;28;20092;-67
2021/12/28 05:10:23;;;;;;;21.35;14.48;;;1.20;99.90;;;;;;5092986;28;20030;-66
2021/12/28 05:12:50;;;;;;;27.35;14.82;;;1.20;99.90;;;;;;5092457;28;20024;-66
2021/12/28 05:15:17;;;;;;;20.92;13.55;;;1.20;99.90;;;;;;5093035;28;20040;-66
2021/12/28 05:17:43;;;;;;;24.85;16.35;;;1.20;99.90;;;;;;5092972;28;20093;-66
2021/12/28 05:20:09;;;;;;;24.55;15.10;;;1.20;99.90;;;;;;5092006;28;20461;-66
2021/12/28 05:22:35;;;;;;;24.65;15.25;;;1.20;99.90;;;;;;5092716;28;20028;-66
2021/12/28 05:25:00;;;;;;;24.30;16.15;;;1.20;99.90;;;;;;5091873;28;20030;-66
2021/12/28 05:27:26;;;;;;;22.00;15.30;;;1.20;99.90;;;;;;5089962;28;20325;-66
2021/12/28 05:29:52;;;;;;;23.60;15.20;;;1.20;99.90;;;;;;5092022;28;20490;-66
2021/12/28 05:32:18;;;;;;;27.48;16.13;;;1.20;99.90;;;;;;5092339;28;20035;-66
2021/12/28 05:34:44;;;;;;;22.52;15.65;;;1.20;99.90;;;;;;5092972;28;20053;-67
2021/12/28 05:37:09;;;;;;;27.83;16.85;;;1.20;99.90;;;;;;5091735;28;20074;-66
2021/12/28 05:39:36;;;;;;;27.50;16.67;;;1.20;99.90;;;;;;5074246;28;20187;-66
2021/12/28 05:42:03;;;;;;;27.67;16.67;;;1.20;99.90;;;;;;5091488;28;20485;-66
2021/12/28 05:44:28;;;;;;;27.83;17.05;;;1.20;99.90;;;;;;5092015;28;20472;-67
2021/12/28 05:46:54;;;;;;;28.27;16.95;;;1.30;99.90;;;;;;5091779;28;20032;-67
2021/12/28 05:49:21;;;;;;;27.25;17.65;;;1.30;99.90;;;;;;5092258;28;20460;-67
2021/12/28 05:51:47;;;;;;;31.25;18.20;;;1.30;99.90;;;;;;5092318;28;20035;-67
2021/12/28 05:54:13;;;;;;;31.55;18.30;;;1.30;99.90;;;;;;5091524;28;20051;-67
2021/12/28 05:56:39;;;;;;;34.10;19.20;;;1.20;99.90;;;;;;5092230;28;20028;-67
2021/12/28 05:59:05;;;;;;;39.85;20.30;;;1.20;99.90;;;;;;5090882;28;20031;-66
2021/12/28 06:01:30;;;;;;;30.73;17.92;;;1.20;99.90;;;;;;5092060;28;20461;-66
2021/12/28 06:03:56;;;;;;;31.30;19.08;;;1.20;99.90;;;;;;5091508;28;20020;-67
2021/12/28 06:06:22;;;;;;;33.58;18.75;;;1.30;99.90;;;;;;5092196;28;20034;-67
2021/12/28 06:08:48;;;;;;;33.70;20.02;;;1.20;99.90;;;;;;5091874;28;20388;-67
2021/12/28 06:11:14;;;;;;;34.00;19.05;;;1.20;99.90;;;;;;5091272;28;20028;-67
2021/12/28 06:13:40;;;;;;;37.40;19.65;;;1.20;99.90;;;;;;5091947;28;20131;-67
2021/12/28 06:16:08;;;;;;;35.22;20.67;;;1.20;99.90;;;;;;5091461;28;20036;-68
2021/12/28 06:18:33;;;;;;;38.50;20.65;;;1.20;99.90;;;;;;5073820;28;20120;-67
2021/12/28 06:20:59;;;;;;;34.00;19.95;;;1.20;99.90;;;;;;5091237;28;20624;-68
2021/12/28 06:23:25;;;;;;;44.20;22.70;;;1.20;99.90;;;;;;5091806;28;20457;-67
2021/12/28 06:25:51;;;;;;;37.88;22.38;;;1.20;99.90;;;;;;5082108;28;20044;-67
2021/12/28 06:28:17;;;;;;;44.72;24.58;;;1.20;99.90;;;;;;5070856;28;20029;-67
2021/12/28 06:30:42;;;;;;;40.13;22.33;;;1.30;99.90;;;;;;5076763;28;20035;-68
2021/12/28 06:33:08;;;;;;;46.05;23.38;;;1.30;99.90;;;;;;5090790;28;20077;-68
2021/12/28 06:35:34;;;;;;;41.42;23.02;;;1.30;99.90;;;;;;5091110;28;20063;-67
2021/12/28 06:38:00;;;;;;;42.63;23.75;;;1.30;99.90;;;;;;5072526;28;20457;-67
2021/12/28 06:40:26;;;;;;;52.17;25.88;;;1.30;99.90;;;;;;5092252;28;20057;-67
2021/12/28 06:42:52;;;;;;;49.22;25.58;;;1.30;99.90;;;;;;5091793;28;20094;-67
2021/12/28 06:45:19;;;;;;;46.42;26.55;;;1.30;99.90;;;;;;5091041;28;20035;-67
2021/12/28 06:47:44;;;;;;;54.58;27.38;;;1.30;99.90;;;;;;5092107;28;20030;-66
2021/12/28 06:50:11;;;;;;;54.95;27.52;;;1.30;99.90;;;;;;5091002;28;20111;-67
2021/12/28 06:52:38;;;;;;;58.78;29.02;;;1.30;99.90;;;;;;5091704;28;20024;-67
2021/12/28 06:55:05;;;;;;;57.70;29.10;;;1.30;99.90;;;;;;5091151;28;20044;-66
2021/12/28 06:57:31;;;;;;;55.80;28.98;;;1.30;99.90;;;;;;5091631;28;20039;-67
2021/12/28 06:59:57;;;;;;;52.08;28.10;;;1.30;99.90;;;;;;5091426;28;20040;-66
2021/12/28 07:02:23;;;;;;;58.50;29.58;;;1.30;99.90;;;;;;5091726;28;20031;-66
2021/12/28 07:04:49;;;;;;;60.42;29.38;;;1.30;99.90;;;;;;5091808;28;20036;-67
2021/12/28 07:07:15;;;;;;;66.65;31.75;;;1.30;99.90;;;;;;5091062;28;20035;-66
2021/12/28 07:09:41;;;;;;;67.38;31.23;;;1.30;99.90;;;;;;5093119;28;20330;-66
2021/12/28 07:12:07;;;;;;;68.97;31.67;;;1.30;99.90;;;;;;5094726;28;20084;-67
2021/12/28 07:14:33;;;;;;;79.90;35.47;;;1.20;99.90;;;;;;5095010;28;20031;-65
2021/12/28 07:16:59;;;;;;;74.85;33.45;;;1.20;99.90;;;;;;5094807;28;20028;-67
2021/12/28 07:19:26;;;;;;;75.57;33.95;;;1.30;99.90;;;;;;5077049;28;20390;-67
2021/12/28 07:21:52;;;;;;;77.65;34.33;;;1.20;99.90;;;;;;5094939;28;20024;-66
2021/12/28 07:24:18;;;;;;;81.32;35.72;;;1.30;99.90;;;;;;5094558;28;20062;-67
2021/12/28 07:26:45;;;;;;;82.30;36.90;;;1.30;99.90;;;;;;5095175;28;20036;-67
2021/12/28 07:29:11;;;;;;;81.18;36.35;;;1.30;99.90;;;;;;5093710;28;20035;-66
2021/12/28 07:31:38;;;;;;;80.22;34.75;;;1.30;99.90;;;;;;5094704;28;20029;-67
2021/12/28 07:34:03;;;;;;;90.50;39.00;;;1.30;99.90;;;;;;5094467;28;20042;-67
2021/12/28 07:36:29;;;;;;;89.15;36.28;;;1.30;99.90;;;;;;5094913;28;20032;-68
2021/12/28 07:38:55;;;;;;;92.43;34.72;;;1.30;99.90;;;;;;5094767;28;20032;-67
2021/12/28 07:41:21;;;;;;;80.78;34.92;;;1.30;99.90;;;;;;5094317;28;20024;-68
2021/12/28 07:43:47;;;;;;;88.65;35.92;;;1.30;99.90;;;;;;5095108;28;20484;-67
2021/12/28 07:46:14;;;;;;;95.57;37.03;;;1.30;99.90;;;;;;5094115;28;20028;-67
2021/12/28 07:48:40;;;;;;;91.38;37.60;;;1.30;99.90;;;;;;5094731;28;20077;-67
2021/12/28 07:51:07;;;;;;;93.55;38.13;;;1.30;99.90;;;;;;5094324;28;20028;-68
2021/12/28 07:53:33;;;;;;;108.43;37.45;;;1.30;99.90;;;;;;5094385;28;20036;-67
2021/12/28 07:56:00;;;;;;;88.07;35.88;;;1.30;99.90;;;;;;5094629;28;20094;-67
2021/12/28 07:58:26;;;;;;;92.65;37.70;;;1.30;99.90;;;;;;5094503;28;20377;-66
2021/12/28 08:00:51;;;;;;;95.45;37.80;;;1.30;99.90;;;;;;5094572;28;20020;-67
2021/12/28 08:03:19;;;;;;;88.38;38.45;;;1.30;99.90;;;;;;5093844;28;20031;-68
2021/12/28 08:05:45;;;;;;;94.68;36.80;;;1.30;99.90;;;;;;5094424;28;20035;-67
2021/12/28 08:08:11;;;;;;;91.80;37.67;;;1.30;99.90;;;;;;5093506;28;20489;-67
2021/12/28 08:10:37;;;;;;;88.97;38.38;;;1.30;99.90;;;;;;5094747;28;20067;-67
2021/12/28 08:13:03;;;;;;;92.57;38.17;;;1.30;99.90;;;;;;5093447;28;20026;-67
2021/12/28 08:15:29;;;;;;;89.95;37.38;;;1.30;99.90;;;;;;5094266;28;20107;-67
2021/12/28 08:17:54;;;;;;;97.68;36.58;;;1.30;99.90;;;;;;5094237;28;20107;-66
2021/12/28 08:20:20;;;;;;;89.88;35.22;;;1.30;99.90;;;;;;5093419;28;20028;-67
2021/12/28 08:22:48;;;;;;;90.32;37.50;;;1.30;99.90;;;;;;5093549;28;20566;-67
2021/12/28 08:25:16;;;;;;;86.60;36.33;;;1.30;99.90;;;;;;5093354;28;20078;-68
2021/12/28 08:27:43;;;;;;;93.90;36.15;;;1.30;99.90;;;;;;5093743;28;20031;-67
2021/12/28 08:30:10;;;;;;;96.50;37.03;;;1.30;99.90;;;;;;5093337;28;20028;-66
2021/12/28 08:32:36;;;;;;;102.28;35.80;;;1.40;99.90;;;;;;5093424;28;20515;-67
2021/12/28 08:35:04;;;;;;;98.03;37.35;;;1.30;99.90;;;;;;5093905;28;20103;-68
2021/12/28 08:37:31;;;;;;;103.10;36.90;;;1.30;99.90;;;;;;5093781;28;20027;-67
2021/12/28 08:39:57;;;;;;;94.47;36.38;;;1.30;99.90;;;;;;5093770;28;20035;-67
2021/12/28 08:42:23;;;;;;;95.03;37.45;;;1.30;99.90;;;;;;5074986;28;20028;-67
2021/12/28 08:44:50;;;;;;;95.10;37.33;;;1.30;99.90;;;;;;5075519;28;20028;-66
2021/12/28 08:47:15;;;;;;;99.53;37.85;;;1.30;99.90;;;;;;5093207;28;20122;-67
2021/12/28 08:49:41;;;;;;;110.22;37.97;;;1.30;99.90;;;;;;5075606;28;20123;-67
2021/12/28 08:52:07;;;;;;;108.85;36.17;;;1.30;99.90;;;;;;5092927;28;20024;-67
2021/12/28 08:54:33;;;;;;;102.32;37.08;;;1.30;99.90;;;;;;5093272;28;20058;-67
2021/12/28 08:56:59;;;;;;;104.75;39.85;;;1.30;99.90;;;;;;5093120;28;20461;-66
2021/12/28 08:59:24;;;;;;;104.25;36.67;;;1.30;99.90;;;;;;5093162;28;20243;-67
2021/12/28 09:01:50;;;;;;;107.63;39.17;;;1.30;99.90;;;;;;5093161;28;20457;-67
2021/12/28 09:04:17;;;;;;;110.40;38.13;;;1.30;99.90;;;;;;5092607;28;20489;-67
2021/12/28 09:06:45;;;;;;;100.20;38.20;;;1.30;99.90;;;;;;5093314;28;20028;-67
2021/12/28 09:09:11;;;;;;;110.55;38.45;;;1.30;99.90;;;;;;5092617;28;20050;-67
2021/12/28 09:11:37;;;;;;;100.97;38.17;;;1.30;99.90;;;;;;5075090;28;20031;-67
2021/12/28 09:14:03;;;;;;;97.82;38.55;;;1.30;99.90;;;;;;5093092;28;20077;-67
2021/12/28 09:16:29;;;;;;;107.45;38.28;;;1.30;99.90;;;;;;5092328;28;20038;-67
2021/12/28 09:18:55;;;;;;;99.88;37.38;;;1.30;99.90;;;;;;5092834;28;20392;-67
2021/12/28 09:21:20;;;;;;;97.60;35.80;;;1.30;99.90;;;;;;5074453;28;20032;-68
2021/12/28 09:23:46;;;;;;;101.80;36.63;;;1.30;99.90;;;;;;5092708;28;20449;-67
2021/12/28 09:26:12;;;;;;;93.28;33.95;;;1.30;99.90;;;;;;5091939;28;20032;-67
2021/12/28 09:28:38;;;;;;;92.05;36.95;;;1.30;99.90;;;;;;5092532;28;20020;-66
2021/12/28 09:31:04;;;;;;;97.57;36.00;;;1.30;99.90;;;;;;5092566;28;20483;-67
2021/12/28 09:33:30;;;;;;;90.22;34.67;;;1.30;99.90;;;;;;5091247;28;20020;-66
2021/12/28 09:35:56;;;;;;;92.90;33.90;;;1.30;99.90;;;;;;5092260;28;20055;-67
2021/12/28 09:38:22;;;;;;;90.85;34.63;;;1.30;99.90;;;;;;5074058;28;20028;-67
2021/12/28 09:40:50;;;;;;;86.85;35.20;;;1.30;99.90;;;;;;5092440;28;20035;-67
2021/12/28 09:43:15;;;;;;;93.75;34.20;;;1.30;99.90;;;;;;5091890;28;20032;-66
2021/12/28 09:45:41;;;;;;;85.75;33.90;;;1.30;99.90;;;;;;5092617;28;20024;-66
2021/12/28 09:48:08;;;;;;;93.53;33.10;;;1.40;99.90;;;;;;5092258;28;20074;-66
2021/12/28 09:50:35;;;;;;;76.97;31.23;;;1.40;99.90;;;;;;5092103;28;20016;-67
2021/12/28 09:53:02;;;;;;;87.20;33.15;;;1.40;99.90;;;;;;5092466;28;20032;-67
2021/12/28 09:55:29;;;;;;;79.88;31.30;;;1.30;99.90;;;;;;5091418;28;20048;-67
2021/12/28 09:57:56;;;;;;;76.82;31.05;;;1.40;99.90;;;;;;5092365;28;20051;-66
2021/12/28 10:00:22;;;;;;;77.45;32.00;;;1.40;99.90;;;;;;5091484;28;20035;-67
2021/12/28 10:02:48;;;;;;;82.07;33.28;;;1.40;99.90;;;;;;5092302;28;20453;-68
2021/12/28 10:05:18;;;;;;;85.25;34.10;;;1.40;99.90;;;;;;5091771;28;20027;-65
2021/12/28 10:07:59;;;;;;;81.90;32.83;;;1.40;99.90;;;;;;5092198;28;20016;-66
2021/12/28 10:10:30;;;;;;;74.53;31.95;;;1.40;99.90;;;;;;5091685;28;20024;-67
2021/12/28 10:13:03;;;;;;;80.35;33.33;;;1.50;99.90;;;;;;5092079;28;20087;-67
2021/12/28 10:15:33;;;;;;;77.32;31.90;;;1.40;99.90;;;;;;5074283;28;20302;-67
2021/12/28 10:18:02;;;;;;;77.47;30.55;;;1.40;99.90;;;;;;5092135;28;20024;-66
2021/12/28 10:20:41;;;;;;;79.57;30.50;;;1.40;99.90;;;;;;5073341;28;20065;-67
2021/12/28 10:23:13;;;;;;;79.82;30.13;;;1.40;99.90;;;;;;5092176;28;20088;-67
2021/12/28 10:25:57;;;;;;;78.20;30.65;;;1.40;99.90;;;;;;5092023;28;20040;-67
2021/12/28 10:28:35;;;;;;;74.38;29.42;;;1.40;99.90;;;;;;5091481;28;20039;-66
2021/12/28 10:31:07;;;;;;;77.90;28.10;;;1.40;99.90;;;;;;5092192;28;20123;-67
2021/12/28 10:33:36;;;;;;;67.43;27.85;;;1.40;99.90;;;;;;5091192;28;20035;-67
2021/12/28 10:36:09;;;;;;;72.05;27.33;;;1.40;99.90;;;;;;5091813;28;20036;-67
2021/12/28 10:38:45;;;;;;;62.25;26.17;;;1.40;99.90;;;;;;5091331;28;20024;-67
2021/12/28 10:41:13;;;;;;;63.03;25.80;;;1.40;99.90;;;;;;5091877;28;20517;-68
2021/12/28 10:43:45;;;;;;;58.17;24.00;;;1.40;99.90;;;;;;5091850;28;20027;-67
2021/12/28 10:46:17;;;;;;;67.40;24.20;;;1.40;99.90;;;;;;5095930;28;20071;-68
2021/12/28 10:48:47;;;;;;;60.90;23.65;;;1.40;99.90;;;;;;5095622;28;20028;-67
2021/12/28 10:51:23;;;;;;;91.77;23.60;;;1.30;99.90;;;;;;5095684;28;20052;-67
2021/12/28 10:56:50;;;;;;;77.90;23.48;;;1.30;99.90;;;;;;5094853;28;20075;-66
2021/12/28 10:59:21;;;;;;;62.88;24.23;;;1.30;99.90;;;;;;5095108;28;20028;-67
2021/12/28 11:01:47;;;;;;;61.70;22.45;;;1.30;99.90;;;;;;5095350;28;20115;-69
2021/12/28 11:04:14;;;;;;;75.07;22.90;;;1.30;99.90;;;;;;5095445;28;20453;-67
2021/12/28 11:06:46;;;;;;;68.57;22.15;;;1.20;99.90;;;;;;5094937;28;20480;-67
2021/12/28 11:09:22;;;;;;;87.22;21.88;;;1.20;99.90;;;;;;5095248;28;20032;-67
2021/12/28 11:11:48;;;;;;;66.57;21.75;;;1.20;99.90;;;;;;5095119;28;20368;-67
2021/12/28 11:14:20;;;;;;;48.38;21.38;;;1.20;99.90;;;;;;5095202;28;20100;-67
2021/12/28 11:16:54;;;;;;;101.40;21.98;;;1.20;99.90;;;;;;5094711;28;20032;-67
2021/12/28 11:19:29;;;;;;;65.82;21.35;;;1.20;99.90;;;;;;5094660;28;20107;-67
2021/12/28 11:21:58;;;;;;;55.03;23.75;;;1.20;99.90;;;;;;5094807;28;20024;-66
2021/12/28 11:24:32;;;;;;;69.63;21.45;;;1.20;99.90;;;;;;5094125;28;20016;-67
2021/12/28 11:26:59;;;;;;;64.55;23.30;;;1.20;99.90;;;;;;5094864;28;20050;-67
2021/12/28 11:29:31;;;;;;;69.30;22.17;;;1.20;99.90;;;;;;5076503;28;20031;-67
2021/12/28 11:32:00;;;;;;;54.42;21.83;;;1.20;99.90;;;;;;5094866;28;20036;-67
2021/12/28 11:34:33;;;;;;;88.68;22.52;;;1.20;99.90;;;;;;5094338;28;20032;-67
2021/12/28 11:37:06;;;;;;;50.65;22.65;;;1.20;99.90;;;;;;5076651;28;20032;-67
2021/12/28 11:39:40;;;;;;;62.20;22.63;;;1.20;99.90;;;;;;5094077;28;20555;-66
2021/12/28 11:42:07;;;;;;;53.90;22.33;;;1.20;99.90;;;;;;5094680;28;20457;-67
2021/12/28 11:44:35;;;;;;;51.75;21.67;;;1.20;99.90;;;;;;5094161;28;20522;-68
2021/12/28 11:47:03;;;;;;;47.53;23.48;;;1.20;99.90;;;;;;5094211;28;20035;-67
2021/12/28 11:49:29;;;;;;;66.32;24.15;;;1.20;99.90;;;;;;5093864;28;20017;-68
2021/12/28 11:51:59;;;;;;;45.58;22.10;;;1.20;99.90;;;;;;5094049;28;20483;-67
2021/12/28 11:54:26;;;;;;;50.40;23.35;;;1.20;99.90;;;;;;5093647;28;20052;-67
2021/12/28 11:57:00;;;;;;;46.15;22.52;;;1.20;99.90;;;;;;5093645;28;20059;-67
2021/12/28 11:59:28;;;;;;;48.10;22.52;;;1.20;99.90;;;;;;5093807;28;20024;-67
2021/12/28 12:01:58;;;;;;;49.55;20.48;;;1.30;99.90;;;;;;5094261;28;20033;-66
2021/12/28 12:04:29;;;;;;;46.47;21.60;;;1.30;99.90;;;;;;5093716;28;20111;-67
2021/12/28 12:07:01;;;;;;;50.20;20.90;;;1.20;99.90;;;;;;5094210;28;20028;-66
2021/12/28 12:09:27;;;;;;;43.92;21.27;;;1.20;99.90;;;;;;5093592;28;20035;-67
2021/12/28 12:12:08;;;;;;;43.45;22.10;;;1.20;99.90;;;;;;5094254;28;20499;-67
2021/12/28 12:14:52;;;;;;;46.30;23.33;;;1.20;99.90;;;;;;5093316;28;20028;-67
2021/12/28 12:17:43;;;;;;;47.35;22.15;;;1.20;99.90;;;;;;5094134;28;20337;-67
2021/12/28 12:20:22;;;;;;;45.78;21.50;;;1.20;99.90;;;;;;5094259;28;20065;-67
2021/12/28 12:22:49;;;;;;;44.78;23.33;;;1.20;99.90;;;;;;5094008;28;20036;-68
2021/12/28 12:25:51;;;;;;;48.03;22.30;;;1.20;99.90;;;;;;5093835;28;20089;-67
2021/12/28 12:28:30;;;;;;;45.20;21.52;;;1.20;99.90;;;;;;5089119;28;20040;-68
2021/12/28 12:30:57;;;;;;;45.85;20.23;;;1.20;99.90;;;;;;5093928;28;20081;-67
2021/12/28 12:33:32;;;;;;;47.25;21.58;;;1.20;99.90;;;;;;5093110;28;20031;-67
2021/12/28 12:35:59;;;;;;;43.08;22.02;;;1.20;99.90;;;;;;5093369;28;20503;-67
2021/12/28 12:38:25;;;;;;;39.45;20.35;;;1.20;99.90;;;;;;5092488;28;20020;-67
2021/12/28 12:40:58;;;;;;;41.33;21.88;;;1.20;99.90;;;;;;5093594;28;20027;-67
2021/12/28 12:43:45;;;;;;;43.15;20.58;;;1.10;99.90;;;;;;5092998;28;20031;-67
2021/12/28 12:46:22;;;;;;;36.95;20.05;;;1.10;99.90;;;;;;5092314;28;20044;-67